createdAt,value
2023-02-03T00:02:02.182Z,0.80
2023-02-03T00:04:29.022Z,0.80
2023-02-03T00:06:56.885Z,0.80
2023-02-03T00:09:23.855Z,0.90
2023-02-03T00:11:50.767Z,0.90
2023-02-03T00:14:17.661Z,0.90
2023-02-03T00:16:44.559Z,1.00
2023-02-03T00:19:11.449Z,0.80
2023-02-03T00:21:38.341Z,0.80
2023-02-03T00:24:05.541Z,0.70
2023-02-03T00:26:32.359Z,0.70
2023-02-03T00:29:00.701Z,0.60
2023-02-03T00:31:27.695Z,0.60
2023-02-03T00:33:56.450Z,0.60
2023-02-03T00:36:24.205Z,0.60
2023-02-03T00:38:51.155Z,0.50
2023-02-03T00:41:19.139Z,0.50
2023-02-03T00:43:46.287Z,0.40
2023-02-03T00:46:13.617Z,0.40
2023-02-03T00:48:40.792Z,0.30
2023-02-03T00:51:07.909Z,0.30
2023-02-03T00:53:34.800Z,0.30
2023-02-03T00:56:01.817Z,0.30
2023-02-03T00:58:28.707Z,0.20
2023-02-03T01:00:57.237Z,0.20
2023-02-03T01:03:24.302Z,0.10
2023-02-03T01:05:51.321Z,0.20
2023-02-03T01:08:18.514Z,0.10
2023-02-03T01:10:45.534Z,0.10
2023-02-03T01:13:12.370Z,0.10
2023-02-03T01:15:46.001Z,0.00
2023-02-03T01:18:12.936Z,0.00
2023-02-03T01:20:39.748Z,0.00
2023-02-03T01:23:06.559Z,0.00
2023-02-03T01:25:35.741Z,0.00
2023-02-03T01:28:02.665Z,0.00
2023-02-03T01:30:29.786Z,0.00
2023-02-03T01:32:56.827Z,0.10
2023-02-03T01:35:23.638Z,0.10
2023-02-03T01:37:50.425Z,0.10
2023-02-03T01:40:17.519Z,0.00
2023-02-03T01:42:44.378Z,0.10
2023-02-03T01:45:13.464Z,0.10
2023-02-03T01:47:49.611Z,0.20
2023-02-03T01:50:30.316Z,0.30
2023-02-03T01:53:01.759Z,0.30
2023-02-03T01:55:34.700Z,0.30
2023-02-03T01:58:16.084Z,0.30
2023-02-03T02:00:44.012Z,0.40
2023-02-03T02:03:11.324Z,0.40
2023-02-03T02:06:00.672Z,0.40
2023-02-03T02:08:28.336Z,0.40
2023-02-03T02:10:55.746Z,0.40
2023-02-03T02:13:23.455Z,0.30
2023-02-03T02:16:15.635Z,0.20
2023-02-03T02:19:04.340Z,0.20
2023-02-03T02:21:59.184Z,0.20
2023-02-03T02:24:45.208Z,0.10
2023-02-03T02:27:28.709Z,0.10
2023-02-03T02:30:26.148Z,0.00
2023-02-03T02:33:05.418Z,0.00
2023-02-03T02:35:54.178Z,0.10
2023-02-03T02:38:34.756Z,0.10
2023-02-03T02:41:23.362Z,0.10
2023-02-03T02:44:07.797Z,0.30
2023-02-03T02:46:43.684Z,0.30
2023-02-03T02:49:35.359Z,0.40
2023-02-03T02:52:05.440Z,0.50
2023-02-03T02:54:37.677Z,0.30
2023-02-03T02:57:05.737Z,0.20
2023-02-03T02:59:32.725Z,0.10
2023-02-03T03:01:59.534Z,0.10
2023-02-03T03:04:30.212Z,0.10
2023-02-03T03:07:14.234Z,0.10
2023-02-03T03:09:45.856Z,0.10
2023-02-03T03:12:15.419Z,0.20
2023-02-03T03:14:55.246Z,0.10
2023-02-03T03:17:29.720Z,0.10
2023-02-03T03:20:01.270Z,0.00
2023-02-03T03:22:35.003Z,0.00
2023-02-03T03:25:09.923Z,0.10
2023-02-03T03:27:41.043Z,0.00
2023-02-03T03:30:18.387Z,-0.10
2023-02-03T03:32:46.251Z,-0.20
2023-02-03T03:35:13.254Z,-0.30
2023-02-03T03:37:50.235Z,-0.20
2023-02-03T03:40:30.581Z,-0.20
2023-02-03T03:43:05.885Z,-0.30
2023-02-03T03:45:41.163Z,-0.30
2023-02-03T03:48:12.321Z,-0.20
2023-02-03T03:50:46.122Z,-0.20
2023-02-03T03:53:15.410Z,-0.40
2023-02-03T03:55:44.602Z,-0.40
2023-02-03T03:58:15.924Z,-0.40
2023-02-03T04:00:44.902Z,-0.50
2023-02-03T04:03:19.277Z,-0.50
2023-02-03T04:05:46.485Z,-0.40
2023-02-03T04:08:13.465Z,-0.60
2023-02-03T04:10:42.226Z,-0.60
2023-02-03T04:13:11.093Z,-0.60
2023-02-03T04:15:38.487Z,-0.70
2023-02-03T04:18:06.617Z,-0.70
2023-02-03T04:20:33.821Z,-0.70
2023-02-03T04:23:00.711Z,-0.70
2023-02-03T04:25:27.610Z,-0.70
2023-02-03T04:27:55.583Z,-0.70
2023-02-03T04:30:23.160Z,-0.80
2023-02-03T04:32:50.190Z,-0.80
2023-02-03T04:35:17.227Z,-0.90
2023-02-03T04:37:44.093Z,-0.90
2023-02-03T04:40:12.155Z,-0.90
2023-02-03T04:42:40.081Z,-0.90
2023-02-03T04:45:08.825Z,-0.90
2023-02-03T04:47:36.285Z,-1.00
2023-02-03T04:50:03.688Z,-1.00
2023-02-03T04:52:30.526Z,-0.90
2023-02-03T04:54:57.521Z,-1.00
2023-02-03T04:57:24.405Z,-1.00
2023-02-03T04:59:51.206Z,-1.00
2023-02-03T05:02:18.032Z,-0.90
2023-02-03T05:04:44.898Z,-0.90
2023-02-03T05:07:11.829Z,-0.90
2023-02-03T05:09:38.632Z,-1.00
2023-02-03T05:12:05.694Z,-1.00
2023-02-03T05:14:32.513Z,-1.00
2023-02-03T05:16:59.465Z,-1.00
2023-02-03T05:19:26.415Z,-1.00
2023-02-03T05:21:53.278Z,-1.00
2023-02-03T05:24:20.127Z,-1.00
2023-02-03T05:26:46.940Z,-1.10
2023-02-03T05:29:13.775Z,-1.10
2023-02-03T05:31:40.639Z,-1.00
2023-02-03T05:34:07.744Z,-1.00
2023-02-03T05:36:34.582Z,-1.00
2023-02-03T05:39:01.368Z,-1.00
2023-02-03T05:41:46.634Z,-1.00
2023-02-03T05:44:13.499Z,-1.00
2023-02-03T05:46:40.344Z,-1.10
2023-02-03T05:49:07.280Z,-1.00
2023-02-03T05:51:34.113Z,-1.00
2023-02-03T05:54:00.982Z,-1.00
2023-02-03T05:56:27.786Z,-1.00
2023-02-03T05:58:54.657Z,-1.10
2023-02-03T06:01:21.581Z,-1.00
2023-02-03T06:03:48.981Z,-1.10
2023-02-03T06:06:16.368Z,-1.00
2023-02-03T06:08:43.711Z,-1.10
2023-02-03T06:11:11.487Z,-1.00
2023-02-03T06:13:38.627Z,-1.00
2023-02-03T06:16:05.514Z,-1.00
2023-02-03T06:18:32.531Z,-1.00
2023-02-03T06:20:59.404Z,-1.00
2023-02-03T06:23:26.263Z,-1.00
2023-02-03T06:25:53.261Z,-1.00
2023-02-03T06:28:20.244Z,-1.10
2023-02-03T06:30:50.343Z,-1.00
2023-02-03T06:33:17.300Z,-1.00
2023-02-03T06:35:44.172Z,-1.00
2023-02-03T06:38:11.285Z,-1.00
2023-02-03T06:40:38.217Z,-0.90
2023-02-03T06:43:05.061Z,-0.90
2023-02-03T06:45:31.880Z,-0.90
2023-02-03T06:47:58.718Z,-1.00
2023-02-03T06:50:25.822Z,-1.00
2023-02-03T06:52:52.806Z,-1.00
2023-02-03T06:55:19.747Z,-1.00
2023-02-03T06:57:47.556Z,-1.00
2023-02-03T07:00:18.743Z,-1.00
2023-02-03T07:02:46.572Z,-0.90
2023-02-03T07:05:13.873Z,-0.90
2023-02-03T07:07:40.792Z,-0.90
2023-02-03T07:10:08.363Z,-0.80
2023-02-03T07:12:36.786Z,-0.80
2023-02-03T07:15:07.232Z,-0.80
2023-02-03T07:17:34.088Z,-0.70
2023-02-03T07:20:00.907Z,-0.70
2023-02-03T07:22:27.815Z,-0.60
2023-02-03T07:24:54.623Z,-0.60
2023-02-03T07:27:21.620Z,-0.60
2023-02-03T07:29:48.653Z,-0.50
2023-02-03T07:32:15.555Z,-0.50
2023-02-03T07:34:42.441Z,-0.40
2023-02-03T07:37:09.318Z,-0.30
2023-02-03T07:39:36.185Z,-0.30
2023-02-03T07:42:03.033Z,-0.30
2023-02-03T07:44:29.932Z,-0.20
2023-02-03T07:46:56.826Z,-0.20
2023-02-03T07:49:23.711Z,-0.10
2023-02-03T07:51:50.942Z,0.10
2023-02-03T07:54:17.854Z,0.10
2023-02-03T07:56:44.664Z,0.20
2023-02-03T07:59:11.519Z,0.30
2023-02-03T08:01:38.351Z,0.50
2023-02-03T08:04:05.769Z,0.60
2023-02-03T08:06:32.786Z,0.90
2023-02-03T08:08:59.824Z,1.00
2023-02-03T08:11:26.713Z,1.30
2023-02-03T08:13:53.528Z,1.40
2023-02-03T08:16:20.475Z,1.50
2023-02-03T08:18:47.367Z,1.40
2023-02-03T08:21:14.243Z,1.30
2023-02-03T08:23:41.939Z,1.30
2023-02-03T08:26:09.109Z,1.30
2023-02-03T08:28:35.915Z,1.40
2023-02-03T08:31:09.137Z,1.40
2023-02-03T08:36:20.397Z,1.50
2023-02-03T08:38:47.330Z,1.60
2023-02-03T08:41:17.982Z,1.40
2023-02-03T08:43:45.463Z,1.40
2023-02-03T08:46:12.969Z,1.50
2023-02-03T08:48:39.854Z,1.70
2023-02-03T08:51:15.070Z,1.80
2023-02-03T08:53:41.976Z,2.10
2023-02-03T08:56:11.479Z,2.20
2023-02-03T08:58:39.301Z,2.30
2023-02-03T09:01:10.870Z,2.40
2023-02-03T09:03:38.519Z,2.60
2023-02-03T09:06:07.022Z,2.60
2023-02-03T09:08:33.978Z,2.60
2023-02-03T09:11:00.826Z,2.60
2023-02-03T09:13:27.676Z,2.30
2023-02-03T09:15:54.501Z,2.20
2023-02-03T09:18:21.343Z,2.10
2023-02-03T09:20:48.153Z,2.00
2023-02-03T09:23:15.260Z,2.10
2023-02-03T09:25:45.788Z,2.00
2023-02-03T09:28:13.550Z,2.10
2023-02-03T09:30:40.388Z,2.20
2023-02-03T09:33:07.266Z,2.20
2023-02-03T09:35:34.153Z,2.20
2023-02-03T09:38:01.267Z,2.20
2023-02-03T09:40:33.694Z,2.30
2023-02-03T09:43:24.835Z,2.20
2023-02-03T09:45:51.859Z,2.00
2023-02-03T09:48:25.691Z,2.00
2023-02-03T09:50:53.737Z,2.00
2023-02-03T09:53:53.567Z,2.10
2023-02-03T09:56:34.484Z,2.00
2023-02-03T09:59:02.281Z,2.00
2023-02-03T10:01:41.949Z,2.10
2023-02-03T10:04:39.903Z,2.00
2023-02-03T10:07:25.410Z,2.10
2023-02-03T10:10:25.618Z,2.20
2023-02-03T10:13:03.358Z,2.30
2023-02-03T10:15:40.559Z,2.20
2023-02-03T10:18:13.176Z,2.30
2023-02-03T10:20:50.222Z,2.40
2023-02-03T10:23:22.574Z,2.30
2023-02-03T10:25:58.472Z,2.30
2023-02-03T10:28:30.951Z,2.30
2023-02-03T10:31:00.170Z,2.60
2023-02-03T10:33:31.318Z,2.70
2023-02-03T10:36:15.452Z,2.90
2023-02-03T10:38:52.530Z,2.80
2023-02-03T10:41:21.155Z,3.00
2023-02-03T10:43:53.244Z,3.10
2023-02-03T10:46:48.712Z,2.90
2023-02-03T10:49:16.494Z,2.90
2023-02-03T10:51:46.899Z,2.90
2023-02-03T10:54:32.862Z,2.80
2023-02-03T10:57:06.289Z,2.80
2023-02-03T10:59:41.722Z,3.10
2023-02-03T11:02:10.885Z,3.30
2023-02-03T11:04:37.987Z,3.00
2023-02-03T11:07:08.259Z,3.00
2023-02-03T11:09:45.222Z,2.90
2023-02-03T11:12:17.695Z,2.80
2023-02-03T11:14:49.032Z,2.80
2023-02-03T11:17:19.370Z,2.80
2023-02-03T11:19:48.263Z,2.70
2023-02-03T11:22:28.772Z,2.70
2023-02-03T11:24:56.362Z,2.80
2023-02-03T11:27:25.001Z,2.90
2023-02-03T11:30:08.142Z,2.80
2023-02-03T11:32:42.189Z,2.60
2023-02-03T11:35:19.924Z,2.50
2023-02-03T11:37:50.160Z,2.50
2023-02-03T11:40:18.246Z,2.40
2023-02-03T11:42:49.500Z,2.30
2023-02-03T11:45:26.441Z,2.30
2023-02-03T11:48:11.307Z,2.30
2023-02-03T11:51:02.821Z,2.10
2023-02-03T11:53:56.870Z,2.10
2023-02-03T11:56:46.874Z,2.20
2023-02-03T11:59:35.691Z,2.20
2023-02-03T12:02:49.048Z,2.10
2023-02-03T12:05:30.964Z,2.10
2023-02-03T12:08:22.630Z,2.20
2023-02-03T12:11:24.029Z,2.10
2023-02-03T12:14:17.477Z,2.20
2023-02-03T12:16:56.252Z,2.40
2023-02-03T12:19:29.795Z,2.40
2023-02-03T12:22:09.988Z,2.30
2023-02-03T12:25:07.814Z,2.30
2023-02-03T12:27:43.546Z,2.20
2023-02-03T12:30:29.636Z,2.20
2023-02-03T12:33:16.051Z,2.30
2023-02-03T12:35:52.639Z,2.40
2023-02-03T12:38:31.725Z,2.20
2023-02-03T12:41:01.153Z,2.10
2023-02-03T12:43:42.089Z,2.20
2023-02-03T12:46:24.600Z,2.20
2023-02-03T12:49:00.262Z,2.30
2023-02-03T12:51:54.645Z,2.30
2023-02-03T12:54:42.424Z,2.10
2023-02-03T12:57:20.789Z,2.20
2023-02-03T13:00:04.608Z,2.20
2023-02-03T13:02:42.160Z,2.10
2023-02-03T13:05:22.924Z,2.10
2023-02-03T13:07:57.376Z,2.00
2023-02-03T13:10:29.685Z,2.00
2023-02-03T13:13:00.414Z,1.90
2023-02-03T13:15:27.290Z,1.90
2023-02-03T13:18:15.700Z,1.80
2023-02-03T13:20:42.617Z,1.70
2023-02-03T13:23:16.035Z,1.70
2023-02-03T13:26:11.050Z,1.50
2023-02-03T13:29:05.890Z,1.40
2023-02-03T13:31:52.844Z,1.30
2023-02-03T13:34:50.855Z,1.30
2023-02-03T13:37:29.547Z,1.20
2023-02-03T13:40:24.068Z,1.20
2023-02-03T13:42:57.858Z,1.10
2023-02-03T13:45:30.252Z,0.90
2023-02-03T13:48:10.740Z,0.80
2023-02-03T13:50:38.904Z,0.80
2023-02-03T13:53:16.572Z,0.70
2023-02-03T13:55:52.786Z,0.60
2023-02-03T13:58:32.696Z,0.60
2023-02-03T14:01:20.614Z,0.60
2023-02-03T14:03:48.606Z,0.40
2023-02-03T14:06:37.163Z,0.30
2023-02-03T14:09:19.370Z,0.30
2023-02-03T14:11:49.281Z,0.30
2023-02-03T14:14:16.069Z,0.20
2023-02-03T14:16:54.273Z,0.20
2023-02-03T14:19:31.385Z,0.10
2023-02-03T14:22:08.825Z,0.20
2023-02-03T14:24:42.551Z,0.20
2023-02-03T14:27:29.973Z,0.20
2023-02-03T14:30:10.771Z,0.20
2023-02-03T14:32:55.352Z,0.10
2023-02-03T14:35:32.324Z,0.10
2023-02-03T14:38:02.908Z,0.10
2023-02-03T14:40:46.262Z,0.10
2023-02-03T14:43:24.661Z,0.10
2023-02-03T14:46:15.154Z,0.10
2023-02-03T14:49:18.218Z,0.10
2023-02-03T14:52:11.077Z,0.10
2023-02-03T14:54:57.938Z,0.00
2023-02-03T14:57:58.767Z,0.00
2023-02-03T15:00:29.437Z,0.00
2023-02-03T15:03:10.996Z,0.00
2023-02-03T15:05:42.446Z,0.00
2023-02-03T15:08:36.059Z,0.00
2023-02-03T15:11:43.673Z,-0.10
2023-02-03T15:14:24.477Z,-0.10
2023-02-03T15:17:01.336Z,-0.10
2023-02-03T15:19:38.146Z,-0.10
2023-02-03T15:22:26.621Z,-0.10
2023-02-03T15:25:04.234Z,-0.10
2023-02-03T15:27:32.555Z,-0.10
2023-02-03T15:30:14.006Z,-0.10
2023-02-03T15:32:47.008Z,-0.10
2023-02-03T15:35:19.548Z,-0.10
2023-02-03T15:37:52.113Z,-0.10
2023-02-03T15:40:24.088Z,-0.10
2023-02-03T15:43:05.748Z,-0.20
2023-02-03T15:45:37.862Z,-0.10
2023-02-03T15:48:06.993Z,-0.10
2023-02-03T15:50:43.293Z,-0.20
2023-02-03T15:53:41.040Z,-0.20
2023-02-03T15:56:26.340Z,-0.20
2023-02-03T15:58:53.845Z,-0.10
2023-02-03T16:01:24.053Z,-0.10
2023-02-03T16:03:56.047Z,-0.20
2023-02-03T16:06:38.499Z,-0.10
2023-02-03T16:09:07.131Z,-0.10
2023-02-03T16:11:38.775Z,-0.10
2023-02-03T16:14:11.895Z,-0.10
2023-02-03T16:17:02.737Z,-0.20
2023-02-03T16:19:34.272Z,-0.20
2023-02-03T16:22:01.207Z,-0.20
2023-02-03T16:24:35.163Z,-0.20
2023-02-03T16:27:27.010Z,-0.20
2023-02-03T16:30:24.628Z,-0.10
2023-02-03T16:33:35.289Z,0.00
2023-02-03T16:36:30.295Z,-0.10
2023-02-03T16:39:20.029Z,-0.10
2023-02-03T16:42:05.178Z,-0.10
2023-02-03T16:44:50.421Z,-0.10
2023-02-03T16:47:43.836Z,-0.10
2023-02-03T16:50:39.717Z,-0.10
2023-02-03T16:53:15.942Z,-0.10
2023-02-03T16:55:46.421Z,-0.10
2023-02-03T16:58:13.744Z,-0.10
2023-02-03T17:00:42.561Z,-0.10
2023-02-03T17:03:14.806Z,-0.10
2023-02-03T17:05:43.608Z,-0.10
2023-02-03T17:08:10.549Z,-0.10
2023-02-03T17:10:38.835Z,0.00
2023-02-03T17:13:05.744Z,-0.10
2023-02-03T17:15:32.690Z,-0.10
2023-02-03T17:18:00.180Z,-0.10
2023-02-03T17:20:27.027Z,-0.10
2023-02-03T17:22:54.713Z,-0.10
2023-02-03T17:25:21.818Z,-0.10
2023-02-03T17:27:48.767Z,-0.10
2023-02-03T17:30:15.766Z,-0.10
2023-02-03T17:32:42.619Z,-0.10
2023-02-03T17:35:09.497Z,0.00
2023-02-03T17:37:36.572Z,0.00
2023-02-03T17:54:05.985Z,0.10
2023-02-03T17:56:35.662Z,0.10
2023-02-03T17:59:04.757Z,0.10
2023-02-03T18:01:32.272Z,0.10
2023-02-03T18:04:02.111Z,0.20
2023-02-03T18:06:30.398Z,0.20
2023-02-03T18:09:06.185Z,0.20
2023-02-03T18:11:34.561Z,0.10
2023-02-03T18:14:02.185Z,0.10
2023-02-03T18:16:33.015Z,0.20
2023-02-03T18:19:02.756Z,0.20
2023-02-03T18:21:35.188Z,0.20
2023-02-03T18:24:02.739Z,0.10
2023-02-03T18:26:34.430Z,0.20
2023-02-03T18:29:01.490Z,0.20
2023-02-03T18:31:28.856Z,0.20
2023-02-03T18:33:55.721Z,0.20
2023-02-03T18:36:22.532Z,0.20
2023-02-03T18:38:49.367Z,0.30
2023-02-03T18:41:19.149Z,0.30
2023-02-03T18:43:49.077Z,0.20
2023-02-03T18:46:20.436Z,0.20
2023-02-03T18:48:47.753Z,0.20
2023-02-03T18:51:16.980Z,0.30
2023-02-03T18:53:49.124Z,0.20
2023-02-03T18:56:22.984Z,0.20
2023-02-03T18:58:49.946Z,0.20
2023-02-03T19:01:27.794Z,0.20
2023-02-03T19:03:56.178Z,0.20
2023-02-03T19:06:24.261Z,0.20
2023-02-03T19:08:51.710Z,0.20
2023-02-03T19:11:19.455Z,0.20
2023-02-03T19:13:46.503Z,0.20
2023-02-03T19:16:16.798Z,0.20
2023-02-03T19:18:47.349Z,0.30
2023-02-03T19:21:14.438Z,0.30
2023-02-03T19:23:42.155Z,0.20
2023-02-03T19:26:10.223Z,0.20
2023-02-03T19:28:37.836Z,0.20
2023-02-03T19:31:08.317Z,0.20
2023-02-03T19:33:36.364Z,0.20
2023-02-03T19:36:07.774Z,0.30
2023-02-03T19:38:35.417Z,0.30
2023-02-03T19:41:02.588Z,0.30
2023-02-03T19:43:32.609Z,0.30
2023-02-03T19:46:00.051Z,0.20
2023-02-03T19:48:27.170Z,0.20
2023-02-03T19:50:54.021Z,0.30
2023-02-03T19:53:21.734Z,0.30
2023-02-03T19:55:48.856Z,0.20
2023-02-03T19:58:16.025Z,0.20
2023-02-03T20:00:43.305Z,0.20
2023-02-03T20:03:10.692Z,0.20
2023-02-03T20:05:38.215Z,0.20
2023-02-03T20:08:05.803Z,0.20
2023-02-03T20:10:33.078Z,0.30
2023-02-03T20:13:00.355Z,0.20
2023-02-03T20:15:27.492Z,0.20
2023-02-03T20:17:54.438Z,0.20
2023-02-03T20:20:21.800Z,0.30
2023-02-03T20:22:49.169Z,0.20
2023-02-03T20:25:16.506Z,0.30
2023-02-03T20:27:43.447Z,0.20
2023-02-03T20:30:11.796Z,0.20
2023-02-03T20:32:38.890Z,0.20
2023-02-03T20:35:06.880Z,0.20
2023-02-03T20:37:36.134Z,0.20
2023-02-03T20:40:11.600Z,0.20
2023-02-03T20:42:38.423Z,0.30
2023-02-03T20:45:17.195Z,0.30
2023-02-03T20:47:44.559Z,0.30
2023-02-03T20:50:19.891Z,0.30
2023-02-03T20:52:48.400Z,0.30
2023-02-03T20:55:18.651Z,0.30
2023-02-03T20:57:47.631Z,0.30
2023-02-03T21:00:40.804Z,0.30
2023-02-03T21:03:29.615Z,0.40
2023-02-03T21:05:56.694Z,0.30
2023-02-03T21:08:23.649Z,0.30
2023-02-03T21:10:50.923Z,0.40
2023-02-03T21:13:34.237Z,0.40
2023-02-03T21:16:04.660Z,0.40
2023-02-03T21:18:38.947Z,0.40
2023-02-03T21:21:15.936Z,0.30
2023-02-03T21:23:47.201Z,0.30
2023-02-03T21:26:20.606Z,0.30
2023-02-03T21:28:52.188Z,0.30
2023-02-03T21:31:27.697Z,0.30
2023-02-03T21:33:56.597Z,0.30
2023-02-03T21:36:30.153Z,0.30
2023-02-03T21:39:01.709Z,0.40
2023-02-03T21:41:35.407Z,0.40
2023-02-03T21:44:02.256Z,0.30
2023-02-03T21:46:32.782Z,0.30
2023-02-03T21:49:01.484Z,0.30
2023-02-03T21:51:35.621Z,0.30
2023-02-03T21:54:15.725Z,0.30
2023-02-03T21:56:43.264Z,0.30
2023-02-03T21:59:16.975Z,0.30
2023-02-03T22:01:43.955Z,0.40
2023-02-03T22:04:10.750Z,0.40
2023-02-03T22:06:40.594Z,0.50
2023-02-03T22:09:12.787Z,0.40
2023-02-03T22:11:39.795Z,0.40
2023-02-03T22:14:06.883Z,0.40
2023-02-03T22:16:33.824Z,0.40
2023-02-03T22:19:00.756Z,0.30
2023-02-03T22:21:27.698Z,0.30
2023-02-03T22:23:54.512Z,0.40
2023-02-03T22:26:22.537Z,0.30
2023-02-03T22:28:52.856Z,0.20
2023-02-03T22:31:20.308Z,0.20
2023-02-03T22:33:47.633Z,0.20
2023-02-03T22:36:14.926Z,0.10
2023-02-03T22:38:42.646Z,0.10
2023-02-03T22:41:13.982Z,0.00
2023-02-03T22:43:41.514Z,0.00
2023-02-03T22:46:08.840Z,0.00
2023-02-03T22:48:35.781Z,0.10
2023-02-03T22:51:02.657Z,0.10
2023-02-03T22:53:29.919Z,0.10
2023-02-03T22:55:57.044Z,0.10
2023-02-03T22:58:23.913Z,0.10
2023-02-03T23:00:51.002Z,0.00
2023-02-03T23:03:17.984Z,0.00
2023-02-03T23:05:44.972Z,-0.10
2023-02-03T23:08:11.845Z,-0.20
2023-02-03T23:10:38.784Z,-0.20
2023-02-03T23:13:05.709Z,-0.20
2023-02-03T23:15:32.635Z,-0.20
2023-02-03T23:17:59.603Z,-0.20
2023-02-03T23:20:26.489Z,-0.20
2023-02-03T23:22:53.302Z,-0.20
2023-02-03T23:25:20.144Z,-0.20
2023-02-03T23:27:47.107Z,-0.30
2023-02-03T23:30:14.772Z,-0.20
2023-02-03T23:32:41.627Z,-0.20
2023-02-03T23:35:27.076Z,-0.20
2023-02-03T23:37:54.246Z,-0.20
2023-02-03T23:40:22.076Z,-0.30
2023-02-03T23:42:48.984Z,-0.30
2023-02-03T23:45:16.382Z,-0.30
2023-02-03T23:47:44.862Z,-0.30
2023-02-03T23:50:14.976Z,-0.30
2023-02-03T23:52:41.909Z,-0.40
2023-02-03T23:55:11.790Z,-0.50
2023-02-03T23:57:39.299Z,-0.50
